Insider Trading activities of Geokinetics Inc insiders.

Monthly summaries of insider trading activities (stock purchases, sales, and option exercises) reported by insiders of Geokinetics Inc since 2005 are illustrated in Table 1 and Table 2. Table 1 shows the monthly insider trading data of Geokinetics Inc since year 2005. Table 2 shows the detailed insider transactions of Geokinetics Inc since 2005. The reporting company's ticker symbol is GOKN. The reporting company's CIK number is 314606.
The total value of stock buying since 2005 is $56,145,924.
The total value of stock sales since 2005 is $9,110,153.
The total value of stock option exercises since 2005 is $4,138,294.


Table 1. Monthly summaries of insider stock purchases, sales, and option exercises for Geokinetics Inc (GOKN).
Trading Period Insider Buying Insider Sales Option Exercises
year-month Shares Value Shares Value Shares Value
2010-12 51,000 $0 0 $0 0 $0
2010-06 100,000 $511,352 0 $0 0 $0
2010-01 0 $0 149,068 $1,455,929 0 $0
2009-11 0 $0 55,850 $727,725 0 $0
2009-10 0 $0 2,127 $40,646 0 $0
2009-07 0 $0 74,400 $933,126 0 $0
2009-06 0 $0 133,433 $1,659,816 0 $0
2009-04 0 $0 100 $320 0 $0
2009-03 223,215 $504,402 29,885 $98,172 0 $0
2009-02 156,700 $501,420 82,900 $265,280 0 $0
2009-01 110,638 $355,521 0 $0 0 $0
2008-12 10,000 $50,045 115,075 $469,289 0 $0
2008-11 20,000 $72,440 73,000 $296,759 0 $0
2008-10 0 $0 4,455 $37,838 0 $0
2008-08 0 $0 82,531 $1,639,778 0 $0
2008-07 5,195 $90,410 161 $2,534 0 $0
2008-06 14,043 $258,405 7,437 $142,195 0 $0
2008-05 10,811 $211,474 0 $0 0 $0
2008-04 136,692 $2,604,529 0 $0 0 $0
2008-03 31,793 $564,772 0 $0 0 $0
2008-02 79,433 $1,361,751 0 $0 0 $0
2008-01 189,230 $3,165,027 0 $0 0 $0
2007-11 10,000 $226,000 10,000 $230,000 0 $0
2007-09 184,500 $3,910,267 29,602 $639,000 35,000 $0
2007-08 53,100 $1,099,488 0 $0 0 $0
2007-07 0 $0 6,450 $199,046 0 $0
2007-06 147,500 $4,573,680 9,000 $272,700 0 $0
2007-05 1,062,227 $28,080,215 0 $0 0 $0
2006-12 0 $0 0 $0 30,494 $777,597
2006-10 4,669,698 $7,938,486 0 $0 1,292,576 $3,360,697
2006-09 39,500 $66,240 0 $0 0 $0
2005-12 400,000 $0 0 $0 0 $0

Table 2. Detailed insider stock purchases, sales, and option exercises of Geokinetics Inc insiders (GOKN)
  Trade Date   Insider Name Trade Type     Shares       Price ($)   Value ($)
2010-12-14 Ziegler William R (Director) Buy 4,000 .00 0
2010-12-14 Webster Steven A (Director) Buy 7,000 .00 0
2010-12-14 Petroleum Geo Services Asa (10% Owner) Buy 40,000 .00 0
2010-06-15 Ziegler William R Buy 16,200 5.43 87,982
2010-06-14 Ziegler William R Buy 16,100 5.53 89,097
2010-06-11 Ziegler William R Buy 12,500 5.05 63,125
2010-06-10 Ziegler William R Buy 35,200 4.97 174,908
2010-06-09 Ziegler William R Buy 20,000 4.81 96,240
2010-01-05 Andreeff Equity Advisors, Llc (10% Owner) Sale 68,668 9.84 675,487
2010-01-04 Andreeff Equity Advisors, Llc (10% Owner) Sale 80,400 9.71 780,442
2009-11-06 Andreeff Equity Advisors, Llc (10% Owner) Sale 55,850 13.03 727,725
2009-10-07 Harte Christopher M Sale 2,127 19.11 40,646
2009-07-07 Andreeff Equity Advisors, Llc (10% Owner) Sale 35,000 11.75 411,250
2009-07-06 Andreeff Equity Advisors, Llc (10% Owner) Sale 25,000 12.75 318,750
2009-07-01 Andreeff Equity Advisors, Llc (10% Owner) Sale 14,400 14.11 203,126
2009-06-30 Andreeff Equity Advisors, Llc (10% Owner) Sale 30,000 13.60 408,060
2009-06-26 Andreeff Equity Advisors, Llc (10% Owner) Sale 38,800 12.16 471,808
2009-06-25 Andreeff Equity Advisors, Llc (10% Owner) Sale 45,000 12.04 541,800
2009-06-18 Andreeff Equity Advisors, Llc (10% Owner) Sale 19,633 12.13 238,148
2009-04-01 Andreeff Equity Advisors, Llc (10% Owner) Sale 100 3.20 320
2009-03-31 Andreeff Equity Advisors, Llc (10% Owner) Buy 2,527 3.27 8,263
2009-03-31 Andreeff Equity Advisors, Llc (10% Owner) Sale 29,885 3.28 98,172
2009-03-16 Miles Richard F (President) Buy 10,000 3.30 33,000
2009-03-16 Ziegler William R Buy 9,325 3.16 29,457
2009-03-13 Ziegler William R Buy 9,663 2.74 26,447
2009-03-12 Ziegler William R Buy 4,300 2.42 10,427
2009-03-11 Ziegler William R Buy 62,600 2.16 135,403
2009-03-11 Webster Steven A Buy 99,800 2.10 209,580
2009-03-10 Webster Steven A Buy 25,000 2.07 51,825
2009-02-09 Avista Capital Partners (offshore), L.p. (10% Owner) Buy 200 3.10 620
2009-02-03 Avista Capital Partners (offshore), L.p. (10% Owner) Buy 156,500 3.20 500,800
2009-02-03 Andreeff Equity Advisors, Llc (10% Owner) Sale 82,900 3.20 265,280
2009-01-22 Avista Capital Partners (offshore), L.p. (10% Owner) Buy 8,800 3.26 28,652
2009-01-21 Avista Capital Partners (offshore), L.p. (10% Owner) Buy 2,800 3.18 8,912
2009-01-20 Avista Capital Partners (offshore), L.p. (10% Owner) Buy 7,500 3.23 24,240
2009-01-15 Avista Capital Partners (offshore), L.p. (10% Owner) Buy 28,000 3.10 86,940
2009-01-13 Avista Capital Partners (offshore), L.p. (10% Owner) Buy 4,600 3.30 15,180
2009-01-12 Avista Capital Partners (offshore), L.p. (10% Owner) Buy 11,600 3.35 38,860
2009-01-08 Avista Capital Partners (offshore), L.p. (10% Owner) Buy 21,000 3.42 71,883
2009-01-06 Avista Capital Partners (offshore), L.p. (10% Owner) Buy 20,001 3.18 63,523
2009-01-02 Andreeff Equity Advisors, Llc (10% Owner) Buy 6,337 2.74 17,331
2008-12-10 Miles Richard F (President and CEO) Buy 5,000 5.16 25,820
2008-12-10 Pittman Gary M Sale 6,014 5.02 30,190
2008-12-09 Miles Richard F (President and CEO) Buy 5,000 4.84 24,225
2008-12-09 Pittman Gary M Sale 3,300 5.12 16,902
2008-12-05 Andreeff Equity Advisors, Llc (10% Owner) Sale 105,761 3.99 422,197
2008-11-20 Parker Lee (Executive VP) Buy 10,000 3.45 34,530
2008-11-20 Pittman Gary M Sale 6,800 3.29 22,358
2008-11-19 Hess Mark A (VP & Chief Accounting Officer) Buy 10,000 3.79 37,910
2008-11-19 Pittman Gary M Sale 5,000 3.63 18,140
2008-11-18 Andreeff Equity Advisors, Llc (10% Owner) Sale 20,000 3.80 76,000
2008-11-18 Pittman Gary M Sale 1,200 4.01 4,812
2008-11-17 Pittman Gary M Sale 5,000 4.05 20,250
2008-11-14 Pittman Gary M Sale 10,000 4.27 42,699
2008-11-06 Andreeff Equity Advisors, Llc (10% Owner) Sale 25,000 4.50 112,500
2008-10-15 Pittman Gary M Sale 2,500 8.82 22,045
2008-10-13 Pittman Gary M Sale 300 8.51 2,553
2008-10-10 Pittman Gary M Sale 1,655 8.00 13,240
2008-08-15 Andreeff Equity Advisors, Llc (10% Owner) Sale 30,866 19.77 610,220
2008-08-12 Maple Leaf Capital I, Llc (10% Owner) Sale 46,000 19.98 919,034
2008-08-11 Maple Leaf Capital I, Llc (10% Owner) Sale 5,665 19.51 110,524
2008-07-31 Maple Leaf Capital I, Llc (10% Owner) Buy 4,600 17.62 81,042
2008-07-18 Maple Leaf Capital I, Llc (10% Owner) Buy 595 15.74 9,368
2008-07-18 Maple Leaf Capital I, Llc (10% Owner) Sale 161 15.74 2,534
2008-06-30 Maple Leaf Capital I, Llc (10% Owner) Buy 14,043 18.40 258,405
2008-06-23 Maple Leaf Capital I, Llc (10% Owner) Sale 7,437 19.12 142,195
2008-05-23 Pittman Gary M Buy 5,000 19.58 97,895
2008-05-19 Pittman Gary M Buy 3,811 19.58 74,619
2008-05-16 Pittman Gary M Buy 2,000 19.48 38,960
2008-04-30 Maple Leaf Capital I, Llc (10% Owner) Buy 136,692 19.05 2,604,529
2008-03-31 Maple Leaf Capital I, Llc (10% Owner) Buy 19,400 18.15 352,090
2008-03-14 Miles Richard F (President and CEO) Buy 1,810 17.90 32,398
2008-03-14 Pittman Gary M (Director) Buy 9,393 17.05 160,150
2008-03-13 Miles Richard F (President and CEO) Buy 1,190 16.92 20,134
2008-02-29 Avista Capital Partners, L.p. (10% Owner) Buy 5,758 17.45 100,454
2008-02-28 Avista Capital Partners, L.p. (10% Owner) Buy 16,300 17.48 284,842
2008-02-25 Avista Capital Partners, L.p. (10% Owner) Buy 13,865 17.15 237,937
2008-02-22 Avista Capital Partners, L.p. (10% Owner) Buy 2,900 15.96 46,281
2008-02-14 Avista Capital Partners, L.p. (10% Owner) Buy 18,945 17.10 323,959
2008-02-01 Avista Capital Partners, L.p. (10% Owner) Buy 11,400 16.94 193,150
2008-01-23 Avista Capital Partners, L.p. (10% Owner) Buy 11,395 17.48 199,127
2008-01-22 Avista Capital Partners, L.p. (10% Owner) Buy 15,100 17.41 262,860
2008-01-18 Avista Capital Partners, L.p. (10% Owner) Buy 41,869 17.11 715,509
2008-01-17 Avista Capital Partners, L.p. (10% Owner) Buy 11,321 16.77 189,864
2008-01-16 Avista Capital Partners, L.p. (10% Owner) Buy 67,000 16.22 1,086,606
2008-01-15 Avista Capital Partners, L.p. (10% Owner) Buy 11,300 15.72 177,647
2007-11-27 Avista Capital Partners, L.p. (10% Owner) Buy 10,000 22.60 226,000
2007-11-12 Johnson David A (Other) Sale 10,000 23.00 230,000
2007-09-14 Bell M Lee (President GDC) Sale 11,000 21.63 237,930
2007-09-14 Bell M Lee (President GDC) Option Ex 35,000 .00 0
2007-09-14 Avista Capital Partners, L.p. (10% Owner) Buy 25,800 21.58 553,095
2007-09-14 Johnson David A (Other) Sale 17,381 21.60 375,429
2007-09-12 Parker Lee (EVP - International Operations) Sale 991 21.00 20,811
2007-09-12 Yu Chin (Vice President - Finance) Sale 230 21.00 4,830
2007-09-12 Miles Richard F (President and CEO) Buy 5,000 21.92 109,600
2007-09-12 Avista Capital Partners, L.p. (10% Owner) Buy 16,800 21.59 362,661
2007-09-11 Avista Capital Partners, L.p. (10% Owner) Buy 9,200 20.72 190,578
2007-09-10 Avista Capital Partners, L.p. (10% Owner) Buy 33,800 20.61 696,512
2007-09-07 Avista Capital Partners, L.p. (10% Owner) Buy 3,800 20.57 78,166
2007-09-06 Avista Capital Partners, L.p. (10% Owner) Buy 800 21.12 16,900
2007-09-05 Avista Capital Partners, L.p. (10% Owner) Buy 45,200 21.55 974,150
2007-09-04 Avista Capital Partners, L.p. (10% Owner) Buy 3,100 21.48 66,572
2007-08-31 Avista Capital Partners, L.p. (10% Owner) Buy 700 21.00 14,700
2007-08-29 Avista Capital Partners, L.p. (10% Owner) Buy 4,800 20.79 99,782
2007-08-24 Avista Capital Partners, L.p. (10% Owner) Buy 32,400 20.57 666,468
2007-08-23 Avista Capital Partners, L.p. (10% Owner) Buy 200 20.19 4,038
2007-08-20 Pittman Gary M (Director) Buy 5,000 20.90 104,500
2007-08-16 Pittman Gary M (Director) Buy 10,000 21.00 210,000
2007-07-02 Maple Leaf Capital I, Llc (10% Owner) Sale 4,309 30.86 132,975
2007-07-02 Andreeff Dane (10% Owner) Sale 2,141 30.86 66,071
2007-06-29 Andreeff Dane (10% Owner) Buy 93,750 31.01 2,907,000
2007-06-15 Dunn Michael A (Vice President) Sale 9,000 30.30 272,700
2007-05-31 Andreeff Dane (Other) Buy 62,227 28.29 1,760,215
2007-05-21 Avista Capital Partners, L.p. (10% Owner) Buy 1,000,000 26.32 26,320,000
2006-12-07 Dunn Michael A (Vice President) Option Ex 30,494 25.50 777,597
2006-10-26 Johnson David A (President and CEO) Option Ex 1,292,576 2.60 3,360,697
2006-10-03 Avista Capital Partners Gp, Llc (10% Owner) Buy 4,395,010 1.70 7,471,517
2006-10-03 Ziegler William R (Director) Buy 274,688 1.70 466,969
2006-09-29 Pittman Gary M (Director) Buy 1,000 1.63 1,630
2006-09-27 Pittman Gary M (Director) Buy 9,500 1.48 14,060
2006-09-18 Pittman Gary M (Director) Buy 4,000 1.70 6,800
2006-09-14 Pittman Gary M (Director) Buy 25,000 1.75 43,750
2005-12-09 Harte Christopher M (Director) Buy 400,000 .00 0

Insider trading activities including stock purchases, stock sales, and option exercises of GOKN listed in the above tables cannot be completely guaranteed as to their accuracy. For more insider trading information of Geokinetics Inc (symbol GOKN, CIK number 314606) see the Securities and Exchange Commission (SEC) website.